Northern, Minnesota
Current Conditions -  °F | °C
As of 12:32 AM on Wednesday 26 Nov 2014 (Local Time) from KBJI Reporting Station
Overcast Overcast  
Wind Chill: 18°   Ceiling: 2600
Heat Index: 18°   Visibility: 10mi
Dew Point: 15°   Wind: 0mph
Humidity: 86%   Direction: NA
Pressure: 30.04"   Gusts: NA
Location:  47.5271°N, 94.7611°W
Report Text: KBJI 260632Z AUTO 00000KT 10SM OVC026 M08/M10 A3004 RMK AO2 T10781097
Loading
Personal Weather Stations






























Interactive Weather Map New forecast layout! Learn more

10-Day Weather Forecast

Advertisements
Track Severe Weather on mobile